createdAt,value
2023-04-07T00:00:30.929Z,91860.47
2023-04-07T00:02:57.786Z,91849.09
2023-04-07T00:05:24.303Z,91858.28
2023-04-07T00:07:56.510Z,91864.91
2023-04-07T00:10:24.472Z,91847.22
2023-04-07T00:12:50.954Z,91860.47
2023-04-07T00:15:17.534Z,91853.53
2023-04-07T00:17:44.129Z,91849.31
2023-04-07T00:20:11.177Z,91839.53
2023-04-07T00:22:37.769Z,91848.78
2023-04-07T00:25:04.680Z,91850.47
2023-04-07T00:27:31.186Z,91857.97
2023-04-07T00:29:57.680Z,91845.53
2023-04-07T00:32:24.192Z,91847.22
2023-04-07T00:34:51.024Z,91845.53
2023-04-07T00:37:17.610Z,91831.41
2023-04-07T00:39:44.128Z,91839.13
2023-04-07T00:42:11.010Z,91844.06
2023-04-07T00:44:37.799Z,91842.34
2023-04-07T00:47:04.390Z,91842.19
2023-04-07T00:49:31.860Z,91838.16
2023-04-07T00:51:58.911Z,91829.75
2023-04-07T00:54:25.502Z,91837.09
2023-04-07T00:56:53.534Z,91824.25
2023-04-07T00:59:20.832Z,91835.63
2023-04-07T01:01:59.101Z,91818.78
2023-04-07T01:04:44.446Z,91824.69
2023-04-07T01:07:35.510Z,91818.78
2023-04-07T01:10:07.106Z,91804.69
2023-04-07T01:12:47.702Z,91798.50
2023-04-07T01:15:17.704Z,91802.78
2023-04-07T01:17:48.463Z,91802.38
2023-04-07T01:20:19.566Z,91806.78
2023-04-07T01:22:51.114Z,91790.28
2023-04-07T01:25:26.640Z,91806.06
2023-04-07T01:28:08.932Z,91791.00
2023-04-07T01:30:39.692Z,91785.13
2023-04-07T01:33:08.373Z,91783.66
2023-04-07T01:35:37.114Z,91792.50
2023-04-07T01:38:05.318Z,91795.00
2023-04-07T01:40:35.332Z,91792.50
2023-04-07T01:43:03.062Z,91785.75
2023-04-07T01:45:31.231Z,91790.69
2023-04-07T01:47:58.073Z,91789.44
2023-04-07T01:50:26.188Z,91787.03
2023-04-07T01:52:53.675Z,91784.50
2023-04-07T01:55:21.297Z,91792.16
2023-04-07T01:57:47.780Z,91779.66
2023-04-07T02:00:14.565Z,91792.50
2023-04-07T02:02:44.962Z,91784.28
2023-04-07T02:05:14.898Z,91790.69
2023-04-07T02:07:46.130Z,91781.13
2023-04-07T02:10:16.557Z,91788.47
2023-04-07T02:12:46.338Z,91781.88
2023-04-07T02:15:13.583Z,91784.06
2023-04-07T02:17:43.254Z,91772.31
2023-04-07T02:20:12.897Z,91784.38
2023-04-07T02:22:39.743Z,91781.13
2023-04-07T02:25:23.304Z,91774.19
2023-04-07T02:27:50.092Z,91774.19
2023-04-07T02:30:16.848Z,91778.81
2023-04-07T02:32:43.366Z,91776.50
2023-04-07T02:35:10.818Z,91773.00
2023-04-07T02:37:37.421Z,91768.47
2023-04-07T02:40:05.031Z,91761.53
2023-04-07T02:42:31.751Z,91761.94
2023-04-07T02:44:58.450Z,91757.94
2023-04-07T02:47:25.716Z,91738.09
2023-04-07T02:49:52.206Z,91751.53
2023-04-07T02:52:18.771Z,91743.66
2023-04-07T02:54:45.380Z,91746.78
2023-04-07T02:57:11.908Z,91747.31
2023-04-07T02:59:38.408Z,91735.63
2023-04-07T03:02:05.138Z,91738.19
2023-04-07T03:04:31.979Z,91733.75
2023-04-07T03:06:58.669Z,91724.94
2023-04-07T03:09:25.147Z,91736.09
2023-04-07T03:11:51.670Z,91737.56
2023-04-07T03:14:18.410Z,91735.88
2023-04-07T03:16:46.084Z,91740.50
2023-04-07T03:19:12.609Z,91749.44
2023-04-07T03:21:39.816Z,91747.22
2023-04-07T03:24:07.340Z,91737.13
2023-04-07T03:26:33.860Z,91739.53
2023-04-07T03:29:00.369Z,91727.47
2023-04-07T03:31:27.044Z,91731.88
2023-04-07T03:33:53.781Z,91720.91
2023-04-07T03:36:20.557Z,91723.88
2023-04-07T03:38:47.906Z,91721.34
2023-04-07T03:41:14.393Z,91715.03
2023-04-07T03:43:41.383Z,91713.13
2023-04-07T03:46:08.125Z,91715.44
2023-04-07T03:48:34.639Z,91714.38
2023-04-07T03:51:01.808Z,91714.38
2023-04-07T03:53:28.286Z,91698.63
2023-04-07T03:55:54.838Z,91718.41
2023-04-07T03:58:21.430Z,91715.13
2023-04-07T04:00:47.934Z,91716.94
2023-04-07T04:03:14.577Z,91701.88
2023-04-07T04:05:41.211Z,91710.72
2023-04-07T04:08:07.720Z,91709.97
2023-04-07T04:10:34.260Z,91709.97
2023-04-07T04:13:00.967Z,91706.00
2023-04-07T04:15:27.476Z,91703.03
2023-04-07T04:17:54.011Z,91682.63
2023-04-07T04:20:22.237Z,91710.72
2023-04-07T04:22:48.818Z,91706.00
2023-04-07T04:25:17.257Z,91703.03
2023-04-07T04:27:43.763Z,91703.03
2023-04-07T04:30:10.447Z,91706.50
2023-04-07T04:32:37.020Z,91705.56
2023-04-07T04:35:03.729Z,91704.50
2023-04-07T04:37:30.567Z,91696.28
2023-04-07T04:39:57.053Z,91696.94
2023-04-07T04:42:23.832Z,91700.84
2023-04-07T04:44:50.369Z,91708.09
2023-04-07T04:47:17.328Z,91701.88
2023-04-07T04:49:43.932Z,91701.56
2023-04-07T04:52:10.411Z,91706.63
2023-04-07T04:54:36.964Z,91712.13
2023-04-07T04:57:03.495Z,91707.47
2023-04-07T04:59:30.014Z,91706.75
2023-04-07T05:01:56.667Z,91717.97
2023-04-07T05:04:23.556Z,91708.31
2023-04-07T05:06:51.076Z,91708.09
2023-04-07T05:09:17.571Z,91714.00
2023-04-07T05:11:44.042Z,91718.31
2023-04-07T05:14:10.876Z,91704.34
2023-04-07T05:16:37.442Z,91713.56
2023-04-07T05:19:04.193Z,91710.19
2023-04-07T05:21:30.692Z,91702.00
2023-04-07T05:23:57.275Z,91719.03
2023-04-07T05:26:23.830Z,91723.06
2023-04-07T05:28:50.326Z,91706.22
2023-04-07T05:31:16.865Z,91708.75
2023-04-07T05:33:43.366Z,91717.59
2023-04-07T05:36:09.959Z,91703.47
2023-04-07T05:38:36.548Z,91725.97
2023-04-07T05:41:03.140Z,91713.16
2023-04-07T05:43:29.641Z,91716.09
2023-04-07T05:45:56.561Z,91715.03
2023-04-07T05:48:23.059Z,91712.28
2023-04-07T05:50:49.540Z,91706.44
2023-04-07T05:53:16.224Z,91713.66
2023-04-07T05:55:43.643Z,91710.72
2023-04-07T05:58:10.170Z,91692.09
2023-04-07T06:00:36.722Z,91690.63
2023-04-07T06:03:03.940Z,91691.03
2023-04-07T06:05:30.767Z,91694.72
2023-04-07T06:07:57.323Z,91686.69
2023-04-07T06:10:23.828Z,91699.34
2023-04-07T06:12:50.296Z,91692.91
2023-04-07T06:15:16.851Z,91685.97
2023-04-07T06:17:45.673Z,91680.41
2023-04-07T06:20:12.655Z,91681.16
2023-04-07T06:22:39.433Z,91670.22
2023-04-07T06:25:07.036Z,91666.44
2023-04-07T06:27:33.644Z,91677.25
2023-04-07T06:30:00.377Z,91682.19
2023-04-07T06:32:26.934Z,91676.34
2023-04-07T06:34:53.462Z,91668.63
2023-04-07T06:37:19.977Z,91676.00
2023-04-07T06:39:46.546Z,91671.59
2023-04-07T06:42:13.070Z,91670.88
2023-04-07T06:44:39.569Z,91672.94
2023-04-07T06:47:06.576Z,91662.53
2023-04-07T06:49:34.228Z,91656.31
2023-04-07T06:52:01.653Z,91641.81
2023-04-07T06:54:28.123Z,91649.38
2023-04-07T06:56:54.703Z,91653.78
2023-04-07T06:59:21.334Z,91652.53
2023-04-07T07:01:49.270Z,91648.53
2023-04-07T07:04:15.989Z,91657.44
2023-04-07T07:06:42.616Z,91654.34
2023-04-07T07:09:09.216Z,91656.75
2023-04-07T07:11:35.955Z,91641.16
2023-04-07T07:14:02.499Z,91651.44
2023-04-07T07:16:29.070Z,91633.47
2023-04-07T07:18:55.556Z,91629.38
2023-04-07T07:21:22.030Z,91633.78
2023-04-07T07:23:48.957Z,91623.91
2023-04-07T07:26:16.024Z,91630.91
2023-04-07T07:28:42.627Z,91629.84
2023-04-07T07:31:13.547Z,91622.59
2023-04-07T07:33:41.382Z,91627.78
2023-04-07T07:36:08.506Z,91616.81
2023-04-07T07:38:37.451Z,91610.31
2023-04-07T07:41:04.463Z,91609.63
2023-04-07T07:43:30.986Z,91607.88
2023-04-07T07:45:57.560Z,91589.78
2023-04-07T07:48:24.167Z,91585.22
2023-04-07T07:50:51.939Z,91583.44
2023-04-07T07:53:19.075Z,91586.78
2023-04-07T07:55:46.930Z,91584.63
2023-04-07T07:58:13.648Z,91575.84
2023-04-07T08:00:40.515Z,91574.25
2023-04-07T08:03:07.256Z,91564.91
2023-04-07T08:05:33.842Z,91559.81
2023-04-07T08:08:00.505Z,91555.97
2023-04-07T08:10:27.026Z,91555.84
2023-04-07T08:12:53.531Z,91548.13
2023-04-07T08:15:20.660Z,91554.41
2023-04-07T08:17:47.233Z,91541.78
2023-04-07T08:20:13.804Z,91536.88
2023-04-07T08:22:40.411Z,91550.78
2023-04-07T08:25:07.059Z,91538.16
2023-04-07T08:27:34.630Z,91535.44
2023-04-07T08:30:04.154Z,91529.34
2023-04-07T08:32:57.397Z,91541.97
2023-04-07T08:35:23.963Z,91529.34
2023-04-07T08:37:50.688Z,91526.63
2023-04-07T08:40:17.551Z,91514.00
2023-04-07T08:42:47.631Z,91519.69
2023-04-07T08:45:16.544Z,91518.59
2023-04-07T08:47:43.357Z,91498.47
2023-04-07T08:50:11.619Z,91511.66
2023-04-07T08:52:55.702Z,91503.81
2023-04-07T08:55:26.390Z,91487.50
2023-04-07T08:57:54.383Z,91487.88
2023-04-07T09:00:21.202Z,91497.81
2023-04-07T09:02:49.444Z,91497.06
2023-04-07T09:05:16.191Z,91492.69
2023-04-07T09:07:46.096Z,91485.41
2023-04-07T09:10:12.639Z,91483.06
2023-04-07T09:12:39.439Z,91476.13
2023-04-07T09:15:07.816Z,91466.44
2023-04-07T09:17:34.494Z,91464.06
2023-04-07T09:20:01.982Z,91463.19
2023-04-07T09:22:42.584Z,91444.53
2023-04-07T09:25:16.585Z,91459.16
2023-04-07T09:28:03.441Z,91458.06
2023-04-07T09:30:32.101Z,91453.28
2023-04-07T09:33:00.056Z,91433.16
2023-04-07T09:35:28.349Z,91433.91
2023-04-07T09:38:09.155Z,91428.81
2023-04-07T09:40:37.445Z,91430.66
2023-04-07T09:43:05.452Z,91421.91
2023-04-07T09:45:35.671Z,91425.38
2023-04-07T09:48:08.632Z,91419.53
2023-04-07T09:50:39.239Z,91425.19
2023-04-07T09:53:05.911Z,91411.31
2023-04-07T09:55:33.908Z,91418.66
2023-04-07T09:58:00.618Z,91410.63
2023-04-07T10:00:27.192Z,91403.66
2023-04-07T10:02:54.347Z,91409.91
2023-04-07T10:05:22.689Z,91406.72
2023-04-07T10:07:49.534Z,91401.97
2023-04-07T10:10:16.685Z,91395.25
2023-04-07T10:12:44.446Z,91386.31
2023-04-07T10:15:16.596Z,91380.28
2023-04-07T10:17:51.734Z,91381.06
2023-04-07T10:20:21.005Z,91354.28
2023-04-07T10:22:51.538Z,91379.03
2023-04-07T10:25:21.260Z,91369.25
2023-04-07T10:27:52.338Z,91363.28
2023-04-07T10:30:24.726Z,91363.72
2023-04-07T10:32:54.100Z,91360.81
2023-04-07T10:35:22.089Z,91364.91
2023-04-07T10:38:07.188Z,91365.09
2023-04-07T10:40:35.523Z,91362.00
2023-04-07T10:43:02.559Z,91357.25
2023-04-07T10:45:48.389Z,91360.94
2023-04-07T10:48:17.188Z,91357.31
2023-04-07T10:50:45.765Z,91361.31
2023-04-07T10:53:16.343Z,91355.13
2023-04-07T10:55:47.229Z,91348.00
2023-04-07T10:58:28.976Z,91347.44
2023-04-07T11:01:07.966Z,91347.63
2023-04-07T11:03:40.330Z,91354.38
2023-04-07T11:06:12.343Z,91349.28
2023-04-07T11:08:44.379Z,91345.97
2023-04-07T11:11:13.678Z,91348.00
2023-04-07T11:13:43.771Z,91340.84
2023-04-07T11:16:11.368Z,91335.19
2023-04-07T11:18:38.997Z,91343.22
2023-04-07T11:21:06.817Z,91328.78
2023-04-07T11:23:44.329Z,91329.34
2023-04-07T11:26:12.530Z,91326.59
2023-04-07T11:28:47.555Z,91328.78
2023-04-07T11:31:26.046Z,91317.06
2023-04-07T11:33:57.133Z,91317.81
2023-04-07T11:36:41.113Z,91315.63
2023-04-07T11:39:20.579Z,91307.22
2023-04-07T11:41:51.096Z,91318.91
2023-04-07T11:44:17.938Z,91304.84
2023-04-07T11:46:59.081Z,91305.91
2023-04-07T11:49:28.703Z,91309.41
2023-04-07T11:52:03.772Z,91309.97
2023-04-07T11:54:43.810Z,91297.50
2023-04-07T11:57:12.926Z,91296.06
2023-04-07T11:59:41.181Z,91303.53
2023-04-07T12:02:08.278Z,91299.88
2023-04-07T12:04:37.818Z,91303.28
2023-04-07T12:07:11.641Z,91303.09
2023-04-07T12:09:38.756Z,91296.16
2023-04-07T12:12:07.713Z,91291.38
2023-04-07T12:14:35.606Z,91285.53
2023-04-07T12:17:03.738Z,91285.53
2023-04-07T12:19:36.144Z,91291.03
2023-04-07T12:22:03.548Z,91282.25
2023-04-07T12:24:32.234Z,91289.19
2023-04-07T12:26:59.704Z,91266.53
2023-04-07T12:29:26.404Z,91278.22
2023-04-07T12:31:53.108Z,91267.28
2023-04-07T12:34:19.888Z,91272.38
2023-04-07T12:36:46.581Z,91287.34
2023-04-07T12:39:13.260Z,91290.28
2023-04-07T12:41:53.118Z,91255.56
2023-04-07T12:44:20.019Z,91280.38
2023-04-07T12:46:47.152Z,91264.47
2023-04-07T12:49:13.755Z,91250.06
2023-04-07T12:51:40.505Z,91255.00
2023-04-07T12:54:07.557Z,91276.75
2023-04-07T12:56:34.243Z,91259.56
2023-04-07T12:59:00.787Z,91259.94
2023-04-07T13:01:27.511Z,91269.09
2023-04-07T13:03:54.567Z,91271.28
2023-04-07T13:06:21.320Z,91266.13
2023-04-07T13:08:47.887Z,91271.63
2023-04-07T13:11:14.544Z,91238.53
2023-04-07T13:13:41.168Z,91273.25
2023-04-07T13:16:08.608Z,91266.84
2023-04-07T13:18:35.431Z,91280.38
2023-04-07T13:21:19.810Z,91260.88
2023-04-07T13:23:50.666Z,91280.06
2023-04-07T13:26:17.295Z,91266.53
2023-04-07T13:28:46.006Z,91269.84
2023-04-07T13:31:15.925Z,91276.03
2023-04-07T13:33:42.766Z,91287.00
2023-04-07T13:36:09.372Z,91286.63
2023-04-07T13:38:36.656Z,91270.91
2023-04-07T13:41:04.061Z,91292.47
2023-04-07T13:43:30.659Z,91288.44
2023-04-07T13:45:57.306Z,91288.44
2023-04-07T13:48:23.829Z,91278.94
2023-04-07T13:50:50.390Z,91278.56
2023-04-07T13:53:18.995Z,91285.88
2023-04-07T13:55:46.092Z,91296.16
2023-04-07T13:58:12.904Z,91291.75
2023-04-07T14:00:40.413Z,91282.06
2023-04-07T14:03:08.660Z,91288.63
2023-04-07T14:05:36.183Z,91281.13
2023-04-07T14:08:02.911Z,91251.69
2023-04-07T14:10:29.689Z,91290.97
2023-04-07T14:12:56.368Z,91275.63
2023-04-07T14:15:23.153Z,91278.56
2023-04-07T14:17:49.796Z,91285.13
2023-04-07T14:20:16.609Z,91277.31
2023-04-07T14:22:49.524Z,91294.28
2023-04-07T14:25:16.721Z,91306.00
2023-04-07T14:27:43.402Z,91267.97
2023-04-07T14:30:10.826Z,91281.13
2023-04-07T14:32:37.560Z,91277.88
2023-04-07T14:35:04.507Z,91310.94
2023-04-07T14:37:31.257Z,91288.09
2023-04-07T14:42:29.741Z,91314.09
2023-04-07T14:44:56.742Z,91318.81
2023-04-07T14:47:23.612Z,91313.72
2023-04-07T14:49:53.229Z,91314.47
2023-04-07T14:52:21.944Z,91308.97
2023-04-07T14:54:48.937Z,91306.09
2023-04-07T14:57:16.810Z,91319.81
2023-04-07T14:59:43.797Z,91309.72
2023-04-07T15:02:10.590Z,91305.53
2023-04-07T15:04:37.527Z,91296.59
2023-04-07T15:07:05.319Z,91332.06
2023-04-07T15:09:32.072Z,91311.78
2023-04-07T15:12:00.466Z,91321.09
2023-04-07T15:14:29.942Z,91317.44
2023-04-07T15:17:05.709Z,91314.53
2023-04-07T15:19:35.666Z,91305.03
2023-04-07T15:22:09.878Z,91314.88
2023-04-07T15:24:42.150Z,91307.78
2023-04-07T15:27:26.855Z,91311.97
2023-04-07T15:36:31.701Z,91359.13
2023-04-07T15:39:04.030Z,91363.88
2023-04-07T15:41:30.739Z,91362.25
2023-04-07T15:44:00.006Z,91364.25
2023-04-07T15:46:27.040Z,91373.78
2023-04-07T15:48:53.564Z,91377.97
2023-04-07T15:51:20.520Z,91379.28
2023-04-07T15:53:47.277Z,91381.84
2023-04-07T15:56:13.977Z,91381.84
2023-04-07T15:58:40.507Z,91382.94
2023-04-07T16:01:08.069Z,91381.47
2023-04-07T16:03:34.762Z,91390.25
2023-04-07T16:06:01.300Z,91378.53
2023-04-07T16:08:27.782Z,91389.53
2023-04-07T16:10:54.276Z,91387.69
2023-04-07T16:13:20.868Z,91382.94
2023-04-07T16:15:47.461Z,91387.16
2023-04-07T16:18:14.004Z,91391.34
2023-04-07T16:20:40.645Z,91393.56
2023-04-07T16:23:07.196Z,91395.75
2023-04-07T16:25:33.715Z,91400.69
2023-04-07T16:28:00.243Z,91395.75
2023-04-07T16:30:26.774Z,91409.28
2023-04-07T16:32:53.354Z,91408.00
2023-04-07T16:35:20.075Z,91409.09
2023-04-07T16:37:46.930Z,91415.88
2023-04-07T16:40:13.921Z,91416.97
2023-04-07T16:42:40.915Z,91423.75
2023-04-07T16:45:07.958Z,91421.00
2023-04-07T16:47:35.379Z,91416.63
2023-04-07T16:50:04.161Z,91431.63
2023-04-07T16:52:31.085Z,91438.22
2023-04-07T16:54:58.035Z,91433.97
2023-04-07T16:57:24.582Z,91434.53
2023-04-07T16:59:51.116Z,91444.06
2023-04-07T17:02:17.772Z,91446.06
2023-04-07T17:04:44.641Z,91452.84
2023-04-07T17:07:11.845Z,91453.56
2023-04-07T17:09:38.861Z,91452.84
2023-04-07T17:12:08.575Z,91459.78
2023-04-07T17:14:35.144Z,91458.84
2023-04-07T17:17:02.040Z,91460.91
2023-04-07T17:19:28.614Z,91463.09
2023-04-07T17:21:55.344Z,91466.38
2023-04-07T17:24:22.159Z,91475.88
2023-04-07T17:26:48.680Z,91477.16
2023-04-07T17:29:16.852Z,91479.91
2023-04-07T17:31:44.130Z,91479.91
2023-04-07T17:34:11.861Z,91478.44
2023-04-07T17:36:38.616Z,91486.50
2023-04-07T17:39:05.447Z,91493.44
2023-04-07T17:41:34.996Z,91496.00
2023-04-07T17:44:01.798Z,91506.97
2023-04-07T17:46:28.531Z,91511.22
2023-04-07T17:48:55.088Z,91511.00
2023-04-07T17:51:21.670Z,91524.72
2023-04-07T17:53:48.604Z,91522.38
2023-04-07T17:56:15.370Z,91522.75
2023-04-07T17:58:41.883Z,91522.75
2023-04-07T18:01:10.683Z,91531.94
2023-04-07T18:03:38.281Z,91539.06
2023-04-07T18:06:06.318Z,91535.59
2023-04-07T18:08:33.010Z,91550.59
2023-04-07T18:10:59.562Z,91542.16
2023-04-07T18:13:26.118Z,91546.22
2023-04-07T18:15:53.117Z,91555.72
2023-04-07T18:18:20.278Z,91552.06
2023-04-07T18:20:46.845Z,91563.41
2023-04-07T18:23:13.726Z,91568.19
2023-04-07T18:25:40.367Z,91574.38
2023-04-07T18:28:06.857Z,91569.63
2023-04-07T18:30:33.574Z,91576.22
2023-04-07T18:33:00.324Z,91584.28
2023-04-07T18:35:27.081Z,91575.47
2023-04-07T18:37:53.672Z,91589.75
2023-04-07T18:40:20.473Z,91589.75
2023-04-07T18:42:47.057Z,91589.56
2023-04-07T18:45:16.421Z,91595.25
2023-04-07T18:47:43.041Z,91600.75
2023-04-07T18:50:10.109Z,91596.00
2023-04-07T18:52:36.696Z,91597.81
2023-04-07T18:55:04.039Z,91607.16
2023-04-07T18:57:30.533Z,91602.91
2023-04-07T18:59:57.013Z,91599.25
2023-04-07T19:02:23.788Z,91601.06
2023-04-07T19:04:50.486Z,91606.56
2023-04-07T19:07:17.053Z,91612.41
2023-04-07T19:09:43.562Z,91614.25
2023-04-07T19:12:11.339Z,91619.75
2023-04-07T19:14:37.895Z,91626.50
2023-04-07T19:17:04.462Z,91621.56
2023-04-07T19:19:31.441Z,91624.84
2023-04-07T19:21:57.929Z,91635.81
2023-04-07T19:24:24.541Z,91644.59
2023-04-07T19:26:52.611Z,91639.84
2023-04-07T19:29:19.128Z,91640.94
2023-04-07T19:31:45.771Z,91647.88
2023-04-07T19:34:12.307Z,91651.91
2023-04-07T19:36:38.855Z,91660.69
2023-04-07T19:39:05.417Z,91659.94
2023-04-07T19:41:32.037Z,91670.19
2023-04-07T19:43:58.551Z,91672.22
2023-04-07T19:46:25.148Z,91669.47
2023-04-07T19:48:51.705Z,91676.22
2023-04-07T19:51:18.217Z,91670.53
2023-04-07T19:53:44.703Z,91672.03
2023-04-07T19:56:11.348Z,91680.06
2023-04-07T19:58:38.602Z,91674.56
2023-04-07T20:01:05.132Z,91680.06
2023-04-07T20:03:32.058Z,91680.06
2023-04-07T20:05:59.655Z,91686.28
2023-04-07T20:08:26.303Z,91676.03
2023-04-07T20:10:53.151Z,91685.94
2023-04-07T20:13:20.306Z,91687.41
2023-04-07T20:15:49.023Z,91681.91
2023-04-07T20:18:18.446Z,91676.41
2023-04-07T20:20:45.944Z,91678.41
2023-04-07T20:23:12.958Z,91683.38
2023-04-07T20:25:39.512Z,91693.28
2023-04-07T20:28:06.182Z,91687.03
2023-04-07T20:30:32.704Z,91682.28
2023-04-07T20:32:59.256Z,91686.31
2023-04-07T20:35:26.037Z,91691.78
2023-04-07T20:37:52.559Z,91694.72
2023-04-07T20:40:19.046Z,91687.78
2023-04-07T20:42:46.772Z,91701.31
2023-04-07T20:45:13.372Z,91700.03
2023-04-07T20:47:40.513Z,91700.41
2023-04-07T20:50:08.200Z,91703.16
2023-04-07T20:52:39.451Z,91700.41
2023-04-07T20:55:07.299Z,91708.66
2023-04-07T20:57:33.854Z,91709.75
2023-04-07T21:00:01.182Z,91710.09
2023-04-07T21:02:27.886Z,91711.91
2023-04-07T21:04:54.478Z,91720.13
2023-04-07T21:07:21.068Z,91721.41
2023-04-07T21:09:47.562Z,91727.44
2023-04-07T21:12:14.236Z,91732.75
2023-04-07T21:14:40.978Z,91728.34
2023-04-07T21:17:07.493Z,91735.63
2023-04-07T21:19:33.990Z,91727.94
2023-04-07T21:22:01.030Z,91726.47
2023-04-07T21:24:29.607Z,91729.94
2023-04-07T21:26:56.140Z,91723.53
2023-04-07T21:29:22.703Z,91729.75
2023-04-07T21:31:49.633Z,91731.03
2023-04-07T21:34:16.591Z,91736.34
2023-04-07T21:36:43.618Z,91728.31
2023-04-07T21:39:10.128Z,91730.31
2023-04-07T21:41:37.218Z,91733.78
2023-04-07T21:44:07.260Z,91741.47
2023-04-07T21:46:34.491Z,91727.56
2023-04-07T21:49:00.994Z,91729.00
2023-04-07T21:51:27.668Z,91731.25
2023-04-07T21:53:54.242Z,91731.25
2023-04-07T21:56:21.902Z,91727.22
2023-04-07T21:58:48.610Z,91729.94
2023-04-07T22:01:15.489Z,91727.22
2023-04-07T22:03:42.217Z,91731.25
2023-04-07T22:06:08.715Z,91733.97
2023-04-07T22:08:35.231Z,91734.16
2023-04-07T22:11:01.748Z,91733.63
2023-04-07T22:13:28.272Z,91734.34
2023-04-07T22:15:55.693Z,91743.66
2023-04-07T22:18:22.294Z,91738.19
2023-04-07T22:20:48.825Z,91738.94
2023-04-07T22:23:15.374Z,91750.97
2023-04-07T22:25:41.827Z,91753.72
2023-04-07T22:28:08.394Z,91749.50
2023-04-07T22:30:34.988Z,91750.25
2023-04-07T22:33:01.575Z,91754.25
2023-04-07T22:35:28.232Z,91755.72
2023-04-07T22:37:54.787Z,91750.25
2023-04-07T22:40:21.354Z,91761.78
2023-04-07T22:42:47.909Z,91761.03
2023-04-07T22:45:14.460Z,91759.38
2023-04-07T22:47:41.005Z,91773.25
2023-04-07T22:50:07.940Z,91769.25
2023-04-07T22:52:34.446Z,91771.81
2023-04-07T22:55:01.041Z,91771.06
2023-04-07T22:57:29.020Z,91769.06
2023-04-07T22:59:55.694Z,91775.09
2023-04-07T23:02:22.322Z,91774.34
2023-04-07T23:04:49.692Z,91771.59
2023-04-07T23:07:16.503Z,91775.09
2023-04-07T23:09:43.038Z,91767.41
2023-04-07T23:12:09.535Z,91775.44
2023-04-07T23:14:36.032Z,91774.69
2023-04-07T23:17:02.869Z,91780.91
2023-04-07T23:19:29.409Z,91777.63
2023-04-07T23:21:55.935Z,91782.56
2023-04-07T23:24:22.433Z,91781.13
2023-04-07T23:26:48.906Z,91783.88
2023-04-07T23:29:15.641Z,91786.81
2023-04-07T23:31:42.287Z,91792.28
2023-04-07T23:34:08.806Z,91792.28
2023-04-07T23:36:35.311Z,91796.50
2023-04-07T23:39:02.637Z,91797.78
2023-04-07T23:41:29.192Z,91803.25
2023-04-07T23:43:55.746Z,91801.78
2023-04-07T23:46:24.342Z,91797.56
2023-04-07T23:48:51.125Z,91798.84
2023-04-07T23:51:17.927Z,91797.56
2023-04-07T23:53:44.404Z,91791.88
2023-04-07T23:56:11.030Z,91798.84
2023-04-07T23:58:37.512Z,91798.13
